sensor_id;sensor_type;location;lat;lon;timestamp;P1;durP1;ratioP1;P2;durP2;ratioP2
29548;SDS011;16487;53.094;8.800;2023-07-13T00:01:56;3.07;;;2.80;;
29548;SDS011;16487;53.094;8.800;2023-07-13T00:04:24;3.23;;;2.90;;
29548;SDS011;16487;53.094;8.800;2023-07-13T00:06:51;4.07;;;3.70;;
29548;SDS011;16487;53.094;8.800;2023-07-13T00:09:20;7.83;;;3.33;;
29548;SDS011;16487;53.094;8.800;2023-07-13T00:11:50;3.40;;;3.10;;
29548;SDS011;16487;53.094;8.800;2023-07-13T00:14:20;3.17;;;2.87;;
29548;SDS011;16487;53.094;8.800;2023-07-13T00:16:47;3.53;;;3.10;;
29548;SDS011;16487;53.094;8.800;2023-07-13T00:19:15;4.20;;;3.80;;
29548;SDS011;16487;53.094;8.800;2023-07-13T00:21:43;3.67;;;3.13;;
29548;SDS011;16487;53.094;8.800;2023-07-13T00:24:16;4.47;;;2.70;;
29548;SDS011;16487;53.094;8.800;2023-07-13T00:26:44;5.60;;;3.50;;
29548;SDS011;16487;53.094;8.800;2023-07-13T00:29:12;5.63;;;2.90;;
29548;SDS011;16487;53.094;8.800;2023-07-13T00:31:40;4.47;;;3.83;;
29548;SDS011;16487;53.094;8.800;2023-07-13T00:34:08;5.87;;;3.20;;
29548;SDS011;16487;53.094;8.800;2023-07-13T00:36:35;3.10;;;2.80;;
29548;SDS011;16487;53.094;8.800;2023-07-13T00:39:03;3.50;;;2.93;;
29548;SDS011;16487;53.094;8.800;2023-07-13T00:41:31;3.90;;;3.00;;
29548;SDS011;16487;53.094;8.800;2023-07-13T00:43:58;3.70;;;2.90;;
29548;SDS011;16487;53.094;8.800;2023-07-13T00:46:26;5.17;;;3.30;;
29548;SDS011;16487;53.094;8.800;2023-07-13T00:48:57;3.40;;;3.10;;
29548;SDS011;16487;53.094;8.800;2023-07-13T00:51:28;13.67;;;3.90;;
29548;SDS011;16487;53.094;8.800;2023-07-13T00:54:01;3.60;;;3.10;;
29548;SDS011;16487;53.094;8.800;2023-07-13T00:56:31;2.87;;;2.60;;
29548;SDS011;16487;53.094;8.800;2023-07-13T00:59:00;3.13;;;2.90;;
29548;SDS011;16487;53.094;8.800;2023-07-13T01:01:30;4.23;;;3.30;;
29548;SDS011;16487;53.094;8.800;2023-07-13T01:04:04;4.70;;;4.20;;
29548;SDS011;16487;53.094;8.800;2023-07-13T01:08:59;4.50;;;3.50;;
29548;SDS011;16487;53.094;8.800;2023-07-13T01:11:26;4.50;;;3.00;;
29548;SDS011;16487;53.094;8.800;2023-07-13T01:13:54;4.47;;;4.07;;
29548;SDS011;16487;53.094;8.800;2023-07-13T01:16:24;4.20;;;3.80;;
29548;SDS011;16487;53.094;8.800;2023-07-13T01:18:53;3.47;;;3.20;;
29548;SDS011;16487;53.094;8.800;2023-07-13T01:21:24;4.13;;;3.73;;
29548;SDS011;16487;53.094;8.800;2023-07-13T01:23:52;3.80;;;3.40;;
29548;SDS011;16487;53.094;8.800;2023-07-13T01:26:20;4.70;;;3.63;;
29548;SDS011;16487;53.094;8.800;2023-07-13T01:28:48;3.87;;;3.33;;
29548;SDS011;16487;53.094;8.800;2023-07-13T01:31:15;4.23;;;3.83;;
29548;SDS011;16487;53.094;8.800;2023-07-13T01:33:42;5.10;;;3.63;;
29548;SDS011;16487;53.094;8.800;2023-07-13T01:36:10;3.10;;;2.80;;
29548;SDS011;16487;53.094;8.800;2023-07-13T01:38:39;3.93;;;3.10;;
29548;SDS011;16487;53.094;8.800;2023-07-13T01:41:10;4.40;;;4.00;;
29548;SDS011;16487;53.094;8.800;2023-07-13T01:43:37;3.70;;;2.97;;
29548;SDS011;16487;53.094;8.800;2023-07-13T01:46:06;4.40;;;3.90;;
29548;SDS011;16487;53.094;8.800;2023-07-13T01:48:49;6.03;;;3.80;;
29548;SDS011;16487;53.094;8.800;2023-07-13T01:51:18;4.00;;;3.60;;
29548;SDS011;16487;53.094;8.800;2023-07-13T01:53:47;3.43;;;3.13;;
29548;SDS011;16487;53.094;8.800;2023-07-13T01:56:14;6.43;;;3.73;;
29548;SDS011;16487;53.094;8.800;2023-07-13T01:58:41;8.70;;;4.40;;
29548;SDS011;16487;53.094;8.800;2023-07-13T02:01:09;4.10;;;3.70;;
29548;SDS011;16487;53.094;8.800;2023-07-13T02:03:36;3.97;;;3.67;;
29548;SDS011;16487;53.094;8.800;2023-07-13T02:06:03;4.40;;;4.00;;
29548;SDS011;16487;53.094;8.800;2023-07-13T02:08:30;3.53;;;3.23;;
29548;SDS011;16487;53.094;8.800;2023-07-13T02:11:00;4.13;;;3.60;;
29548;SDS011;16487;53.094;8.800;2023-07-13T02:13:29;3.90;;;3.60;;
29548;SDS011;16487;53.094;8.800;2023-07-13T02:15:56;4.00;;;3.60;;
29548;SDS011;16487;53.094;8.800;2023-07-13T02:18:24;3.43;;;3.13;;
29548;SDS011;16487;53.094;8.800;2023-07-13T02:20:51;4.13;;;3.73;;
29548;SDS011;16487;53.094;8.800;2023-07-13T02:23:18;6.23;;;3.87;;
29548;SDS011;16487;53.094;8.800;2023-07-13T02:25:46;3.90;;;3.50;;
29548;SDS011;16487;53.094;8.800;2023-07-13T02:28:16;5.83;;;3.93;;
29548;SDS011;16487;53.094;8.800;2023-07-13T02:30:43;4.37;;;3.97;;
29548;SDS011;16487;53.094;8.800;2023-07-13T02:33:10;3.73;;;3.40;;
29548;SDS011;16487;53.094;8.800;2023-07-13T02:35:38;5.63;;;3.40;;
29548;SDS011;16487;53.094;8.800;2023-07-13T02:38:05;4.17;;;3.87;;
29548;SDS011;16487;53.094;8.800;2023-07-13T02:40:32;3.93;;;3.60;;
29548;SDS011;16487;53.094;8.800;2023-07-13T02:43:00;3.17;;;2.97;;
29548;SDS011;16487;53.094;8.800;2023-07-13T02:45:32;3.77;;;3.47;;
29548;SDS011;16487;53.094;8.800;2023-07-13T02:47:59;3.80;;;3.20;;
29548;SDS011;16487;53.094;8.800;2023-07-13T02:50:26;6.83;;;3.70;;
29548;SDS011;16487;53.094;8.800;2023-07-13T02:52:54;2.77;;;2.57;;
29548;SDS011;16487;53.094;8.800;2023-07-13T02:55:21;2.77;;;2.57;;
29548;SDS011;16487;53.094;8.800;2023-07-13T02:57:48;2.40;;;2.20;;
29548;SDS011;16487;53.094;8.800;2023-07-13T03:00:16;5.40;;;3.47;;
29548;SDS011;16487;53.094;8.800;2023-07-13T03:02:44;5.10;;;3.43;;
29548;SDS011;16487;53.094;8.800;2023-07-13T03:05:12;3.23;;;2.80;;
29548;SDS011;16487;53.094;8.800;2023-07-13T03:07:39;2.80;;;2.53;;
29548;SDS011;16487;53.094;8.800;2023-07-13T03:10:08;5.83;;;2.90;;
29548;SDS011;16487;53.094;8.800;2023-07-13T03:12:42;5.50;;;3.33;;
29548;SDS011;16487;53.094;8.800;2023-07-13T03:15:17;2.83;;;2.63;;
29548;SDS011;16487;53.094;8.800;2023-07-13T03:17:47;3.57;;;2.80;;
29548;SDS011;16487;53.094;8.800;2023-07-13T03:20:15;5.93;;;3.17;;
29548;SDS011;16487;53.094;8.800;2023-07-13T03:22:44;2.97;;;2.50;;
29548;SDS011;16487;53.094;8.800;2023-07-13T03:25:12;2.57;;;2.30;;
29548;SDS011;16487;53.094;8.800;2023-07-13T03:27:41;3.73;;;2.50;;
29548;SDS011;16487;53.094;8.800;2023-07-13T03:30:12;4.73;;;2.07;;
29548;SDS011;16487;53.094;8.800;2023-07-13T03:32:41;2.50;;;1.80;;
29548;SDS011;16487;53.094;8.800;2023-07-13T03:35:10;2.50;;;2.30;;
29548;SDS011;16487;53.094;8.800;2023-07-13T03:37:37;2.53;;;2.30;;
29548;SDS011;16487;53.094;8.800;2023-07-13T03:40:05;2.50;;;2.30;;
29548;SDS011;16487;53.094;8.800;2023-07-13T03:42:33;2.43;;;2.23;;
29548;SDS011;16487;53.094;8.800;2023-07-13T03:45:00;6.90;;;2.50;;
29548;SDS011;16487;53.094;8.800;2023-07-13T03:47:30;2.80;;;1.60;;
29548;SDS011;16487;53.094;8.800;2023-07-13T03:49:59;3.67;;;2.93;;
29548;SDS011;16487;53.094;8.800;2023-07-13T03:52:28;2.57;;;2.13;;
29548;SDS011;16487;53.094;8.800;2023-07-13T03:54:55;2.30;;;1.80;;
29548;SDS011;16487;53.094;8.800;2023-07-13T03:57:24;4.80;;;1.80;;
29548;SDS011;16487;53.094;8.800;2023-07-13T03:59:51;2.13;;;1.50;;
29548;SDS011;16487;53.094;8.800;2023-07-13T04:02:18;4.40;;;2.00;;
29548;SDS011;16487;53.094;8.800;2023-07-13T04:04:47;2.60;;;2.17;;
29548;SDS011;16487;53.094;8.800;2023-07-13T04:07:14;3.70;;;1.67;;
29548;SDS011;16487;53.094;8.800;2023-07-13T04:09:43;2.30;;;2.10;;
29548;SDS011;16487;53.094;8.800;2023-07-13T04:12:10;4.33;;;2.60;;
29548;SDS011;16487;53.094;8.800;2023-07-13T04:14:37;2.27;;;1.60;;
29548;SDS011;16487;53.094;8.800;2023-07-13T04:17:04;3.63;;;1.87;;
29548;SDS011;16487;53.094;8.800;2023-07-13T04:19:32;3.50;;;1.90;;
29548;SDS011;16487;53.094;8.800;2023-07-13T04:21:59;2.70;;;2.27;;
29548;SDS011;16487;53.094;8.800;2023-07-13T04:24:26;2.30;;;1.50;;
29548;SDS011;16487;53.094;8.800;2023-07-13T04:26:55;2.03;;;1.83;;
29548;SDS011;16487;53.094;8.800;2023-07-13T04:29:22;1.60;;;1.30;;
29548;SDS011;16487;53.094;8.800;2023-07-13T04:31:49;1.97;;;1.77;;
29548;SDS011;16487;53.094;8.800;2023-07-13T04:34:17;5.40;;;1.97;;
29548;SDS011;16487;53.094;8.800;2023-07-13T04:36:44;1.63;;;1.50;;
29548;SDS011;16487;53.094;8.800;2023-07-13T04:39:11;1.63;;;1.53;;
29548;SDS011;16487;53.094;8.800;2023-07-13T04:41:38;1.67;;;1.43;;
29548;SDS011;16487;53.094;8.800;2023-07-13T04:44:07;2.90;;;1.70;;
29548;SDS011;16487;53.094;8.800;2023-07-13T04:46:34;2.80;;;1.57;;
29548;SDS011;16487;53.094;8.800;2023-07-13T04:49:03;2.30;;;1.40;;
29548;SDS011;16487;53.094;8.800;2023-07-13T04:51:30;2.83;;;1.60;;
29548;SDS011;16487;53.094;8.800;2023-07-13T04:53:57;3.80;;;1.27;;
29548;SDS011;16487;53.094;8.800;2023-07-13T04:56:27;5.67;;;2.07;;
29548;SDS011;16487;53.094;8.800;2023-07-13T04:58:54;1.47;;;1.37;;
29548;SDS011;16487;53.094;8.800;2023-07-13T05:01:23;3.50;;;2.10;;
29548;SDS011;16487;53.094;8.800;2023-07-13T05:03:50;3.23;;;1.73;;
29548;SDS011;16487;53.094;8.800;2023-07-13T05:06:17;1.70;;;1.43;;
29548;SDS011;16487;53.094;8.800;2023-07-13T05:08:44;5.03;;;1.97;;
29548;SDS011;16487;53.094;8.800;2023-07-13T05:11:12;1.93;;;1.43;;
29548;SDS011;16487;53.094;8.800;2023-07-13T05:13:39;1.40;;;1.20;;
29548;SDS011;16487;53.094;8.800;2023-07-13T05:16:06;2.20;;;1.70;;
29548;SDS011;16487;53.094;8.800;2023-07-13T05:18:35;2.67;;;1.40;;
29548;SDS011;16487;53.094;8.800;2023-07-13T05:21:05;1.20;;;1.10;;
29548;SDS011;16487;53.094;8.800;2023-07-13T05:23:34;3.37;;;1.67;;
29548;SDS011;16487;53.094;8.800;2023-07-13T05:26:02;1.40;;;1.17;;
29548;SDS011;16487;53.094;8.800;2023-07-13T05:28:35;2.13;;;1.80;;
29548;SDS011;16487;53.094;8.800;2023-07-13T05:31:02;1.73;;;1.63;;
29548;SDS011;16487;53.094;8.800;2023-07-13T05:33:30;1.80;;;1.40;;
29548;SDS011;16487;53.094;8.800;2023-07-13T05:35:59;3.50;;;1.80;;
29548;SDS011;16487;53.094;8.800;2023-07-13T05:38:26;3.10;;;2.13;;
29548;SDS011;16487;53.094;8.800;2023-07-13T05:40:54;1.83;;;1.50;;
29548;SDS011;16487;53.094;8.800;2023-07-13T05:43:23;2.53;;;1.77;;
29548;SDS011;16487;53.094;8.800;2023-07-13T05:45:51;2.67;;;1.60;;
29548;SDS011;16487;53.094;8.800;2023-07-13T05:48:19;3.30;;;1.60;;
29548;SDS011;16487;53.094;8.800;2023-07-13T05:50:46;6.33;;;2.00;;
29548;SDS011;16487;53.094;8.800;2023-07-13T05:53:15;4.53;;;2.17;;
29548;SDS011;16487;53.094;8.800;2023-07-13T05:55:43;6.20;;;1.57;;
29548;SDS011;16487;53.094;8.800;2023-07-13T05:58:11;2.40;;;1.23;;
29548;SDS011;16487;53.094;8.800;2023-07-13T06:00:38;1.97;;;1.87;;
29548;SDS011;16487;53.094;8.800;2023-07-13T06:03:06;5.33;;;1.90;;
29548;SDS011;16487;53.094;8.800;2023-07-13T06:05:33;2.50;;;1.40;;
29548;SDS011;16487;53.094;8.800;2023-07-13T06:08:02;1.70;;;1.60;;
29548;SDS011;16487;53.094;8.800;2023-07-13T06:10:33;2.23;;;1.47;;
29548;SDS011;16487;53.094;8.800;2023-07-13T06:13:01;2.50;;;2.10;;
29548;SDS011;16487;53.094;8.800;2023-07-13T06:15:28;2.97;;;1.77;;
29548;SDS011;16487;53.094;8.800;2023-07-13T06:17:55;2.60;;;1.60;;
29548;SDS011;16487;53.094;8.800;2023-07-13T06:20:23;1.70;;;1.60;;
29548;SDS011;16487;53.094;8.800;2023-07-13T06:22:50;2.83;;;2.10;;
29548;SDS011;16487;53.094;8.800;2023-07-13T06:25:18;2.33;;;1.70;;
29548;SDS011;16487;53.094;8.800;2023-07-13T06:27:47;2.63;;;2.30;;
29548;SDS011;16487;53.094;8.800;2023-07-13T06:30:14;1.10;;;1.00;;
29548;SDS011;16487;53.094;8.800;2023-07-13T06:32:41;1.77;;;1.30;;
29548;SDS011;16487;53.094;8.800;2023-07-13T06:35:08;8.70;;;1.67;;
29548;SDS011;16487;53.094;8.800;2023-07-13T06:37:35;2.20;;;1.50;;
29548;SDS011;16487;53.094;8.800;2023-07-13T06:40:03;4.20;;;2.40;;
29548;SDS011;16487;53.094;8.800;2023-07-13T06:42:31;3.63;;;2.00;;
29548;SDS011;16487;53.094;8.800;2023-07-13T06:44:59;5.03;;;2.33;;
29548;SDS011;16487;53.094;8.800;2023-07-13T06:47:26;3.40;;;1.43;;
29548;SDS011;16487;53.094;8.800;2023-07-13T06:49:54;1.40;;;1.10;;
29548;SDS011;16487;53.094;8.800;2023-07-13T06:52:21;3.27;;;2.57;;
29548;SDS011;16487;53.094;8.800;2023-07-13T06:54:52;2.67;;;1.73;;
29548;SDS011;16487;53.094;8.800;2023-07-13T06:57:22;3.33;;;1.97;;
29548;SDS011;16487;53.094;8.800;2023-07-13T06:59:49;2.60;;;1.93;;
29548;SDS011;16487;53.094;8.800;2023-07-13T07:02:18;4.43;;;1.90;;
29548;SDS011;16487;53.094;8.800;2023-07-13T07:04:45;1.43;;;1.33;;
29548;SDS011;16487;53.094;8.800;2023-07-13T07:07:23;8.20;;;2.00;;
29548;SDS011;16487;53.094;8.800;2023-07-13T07:09:50;3.37;;;2.17;;
29548;SDS011;16487;53.094;8.800;2023-07-13T07:12:18;2.67;;;1.90;;
29548;SDS011;16487;53.094;8.800;2023-07-13T07:14:45;1.83;;;1.60;;
29548;SDS011;16487;53.094;8.800;2023-07-13T07:17:12;2.73;;;1.77;;
29548;SDS011;16487;53.094;8.800;2023-07-13T07:19:41;2.50;;;1.30;;
29548;SDS011;16487;53.094;8.800;2023-07-13T07:22:08;2.37;;;2.17;;
29548;SDS011;16487;53.094;8.800;2023-07-13T07:24:35;3.67;;;1.90;;
29548;SDS011;16487;53.094;8.800;2023-07-13T07:27:02;2.30;;;1.77;;
29548;SDS011;16487;53.094;8.800;2023-07-13T07:29:32;2.40;;;1.70;;
29548;SDS011;16487;53.094;8.800;2023-07-13T07:32:03;4.07;;;2.00;;
29548;SDS011;16487;53.094;8.800;2023-07-13T07:34:52;1.90;;;1.80;;
29548;SDS011;16487;53.094;8.800;2023-07-13T07:37:19;3.30;;;2.07;;
29548;SDS011;16487;53.094;8.800;2023-07-13T07:39:49;3.13;;;2.43;;
29548;SDS011;16487;53.094;8.800;2023-07-13T07:42:36;6.23;;;2.80;;
29548;SDS011;16487;53.094;8.800;2023-07-13T07:45:04;3.20;;;2.20;;
29548;SDS011;16487;53.094;8.800;2023-07-13T07:47:31;2.57;;;2.23;;
29548;SDS011;16487;53.094;8.800;2023-07-13T07:50:00;2.80;;;2.60;;
29548;SDS011;16487;53.094;8.800;2023-07-13T07:52:27;2.50;;;2.30;;
29548;SDS011;16487;53.094;8.800;2023-07-13T07:54:54;2.90;;;2.03;;
29548;SDS011;16487;53.094;8.800;2023-07-13T07:57:42;2.33;;;1.47;;
29548;SDS011;16487;53.094;8.800;2023-07-13T08:00:12;1.90;;;1.80;;
29548;SDS011;16487;53.094;8.800;2023-07-13T08:02:43;3.13;;;2.10;;
29548;SDS011;16487;53.094;8.800;2023-07-13T08:05:15;2.60;;;2.00;;
29548;SDS011;16487;53.094;8.800;2023-07-13T08:07:45;3.70;;;2.77;;
29548;SDS011;16487;53.094;8.800;2023-07-13T08:10:13;4.13;;;2.60;;
29548;SDS011;16487;53.094;8.800;2023-07-13T08:12:41;3.33;;;3.10;;
29548;SDS011;16487;53.094;8.800;2023-07-13T08:15:12;1.70;;;1.47;;
29548;SDS011;16487;53.094;8.800;2023-07-13T08:17:41;2.50;;;2.30;;
29548;SDS011;16487;53.094;8.800;2023-07-13T08:20:08;2.37;;;2.03;;
29548;SDS011;16487;53.094;8.800;2023-07-13T08:22:37;2.87;;;2.67;;
29548;SDS011;16487;53.094;8.800;2023-07-13T08:25:05;2.60;;;1.97;;
29548;SDS011;16487;53.094;8.800;2023-07-13T08:27:33;1.67;;;1.57;;
29548;SDS011;16487;53.094;8.800;2023-07-13T08:30:00;3.43;;;2.77;;
29548;SDS011;16487;53.094;8.800;2023-07-13T08:32:27;2.73;;;2.47;;
29548;SDS011;16487;53.094;8.800;2023-07-13T08:34:55;3.70;;;2.00;;
29548;SDS011;16487;53.094;8.800;2023-07-13T08:37:22;2.20;;;2.00;;
29548;SDS011;16487;53.094;8.800;2023-07-13T08:39:50;2.90;;;2.50;;
29548;SDS011;16487;53.094;8.800;2023-07-13T08:42:22;2.30;;;2.10;;
29548;SDS011;16487;53.094;8.800;2023-07-13T08:45:03;2.90;;;2.57;;
29548;SDS011;16487;53.094;8.800;2023-07-13T08:47:40;4.00;;;2.77;;
29548;SDS011;16487;53.094;8.800;2023-07-13T08:50:13;4.20;;;2.57;;
29548;SDS011;16487;53.094;8.800;2023-07-13T08:52:44;3.00;;;2.70;;
29548;SDS011;16487;53.094;8.800;2023-07-13T08:55:16;2.93;;;2.73;;
29548;SDS011;16487;53.094;8.800;2023-07-13T08:57:46;2.80;;;2.40;;
29548;SDS011;16487;53.094;8.800;2023-07-13T09:00:20;2.13;;;2.03;;
29548;SDS011;16487;53.094;8.800;2023-07-13T09:02:48;2.67;;;2.30;;
29548;SDS011;16487;53.094;8.800;2023-07-13T09:05:24;2.10;;;1.77;;
29548;SDS011;16487;53.094;8.800;2023-07-13T09:07:58;2.33;;;2.23;;
29548;SDS011;16487;53.094;8.800;2023-07-13T09:10:41;2.50;;;2.07;;
29548;SDS011;16487;53.094;8.800;2023-07-13T09:13:19;2.87;;;2.53;;
29548;SDS011;16487;53.094;8.800;2023-07-13T09:15:54;2.30;;;2.10;;
29548;SDS011;16487;53.094;8.800;2023-07-13T09:18:23;1.70;;;1.60;;
29548;SDS011;16487;53.094;8.800;2023-07-13T09:20:58;2.70;;;2.50;;
29548;SDS011;16487;53.094;8.800;2023-07-13T09:23:30;3.13;;;2.37;;
29548;SDS011;16487;53.094;8.800;2023-07-13T09:26:01;4.40;;;2.20;;
29548;SDS011;16487;53.094;8.800;2023-07-13T09:28:33;2.13;;;2.03;;
29548;SDS011;16487;53.094;8.800;2023-07-13T09:31:06;2.10;;;1.90;;
29548;SDS011;16487;53.094;8.800;2023-07-13T09:33:37;3.17;;;2.87;;
29548;SDS011;16487;53.094;8.800;2023-07-13T09:36:11;3.50;;;2.40;;
29548;SDS011;16487;53.094;8.800;2023-07-13T09:38:45;1.93;;;1.83;;
29548;SDS011;16487;53.094;8.800;2023-07-13T09:41:18;2.43;;;2.00;;
29548;SDS011;16487;53.094;8.800;2023-07-13T09:44:07;1.93;;;1.83;;
29548;SDS011;16487;53.094;8.800;2023-07-13T09:46:35;1.80;;;1.70;;
29548;SDS011;16487;53.094;8.800;2023-07-13T09:49:02;2.20;;;1.93;;
29548;SDS011;16487;53.094;8.800;2023-07-13T09:51:29;1.70;;;1.60;;
29548;SDS011;16487;53.094;8.800;2023-07-13T09:53:56;1.60;;;1.50;;
29548;SDS011;16487;53.094;8.800;2023-07-13T09:56:26;1.60;;;1.50;;
29548;SDS011;16487;53.094;8.800;2023-07-13T09:58:55;3.30;;;2.07;;
29548;SDS011;16487;53.094;8.800;2023-07-13T10:01:30;2.00;;;1.90;;
29548;SDS011;16487;53.094;8.800;2023-07-13T10:03:59;1.90;;;1.80;;
29548;SDS011;16487;53.094;8.800;2023-07-13T10:06:26;1.63;;;1.53;;
29548;SDS011;16487;53.094;8.800;2023-07-13T10:08:55;2.30;;;1.70;;
29548;SDS011;16487;53.094;8.800;2023-07-13T10:11:25;1.67;;;1.57;;
29548;SDS011;16487;53.094;8.800;2023-07-13T10:13:55;1.83;;;1.63;;
29548;SDS011;16487;53.094;8.800;2023-07-13T10:16:24;2.00;;;1.90;;
29548;SDS011;16487;53.094;8.800;2023-07-13T10:18:55;2.10;;;1.97;;
29548;SDS011;16487;53.094;8.800;2023-07-13T10:21:26;5.13;;;1.67;;
29548;SDS011;16487;53.094;8.800;2023-07-13T10:24:06;2.37;;;1.63;;
29548;SDS011;16487;53.094;8.800;2023-07-13T10:26:43;1.83;;;1.57;;
29548;SDS011;16487;53.094;8.800;2023-07-13T10:29:14;1.57;;;1.47;;
29548;SDS011;16487;53.094;8.800;2023-07-13T10:31:44;2.10;;;1.90;;
29548;SDS011;16487;53.094;8.800;2023-07-13T10:34:12;2.30;;;1.87;;
29548;SDS011;16487;53.094;8.800;2023-07-13T10:36:41;1.90;;;1.70;;
29548;SDS011;16487;53.094;8.800;2023-07-13T10:39:15;2.30;;;2.07;;
29548;SDS011;16487;53.094;8.800;2023-07-13T10:41:49;3.30;;;1.67;;
29548;SDS011;16487;53.094;8.800;2023-07-13T10:44:23;1.77;;;1.67;;
29548;SDS011;16487;53.094;8.800;2023-07-13T10:46:55;1.80;;;1.70;;
29548;SDS011;16487;53.094;8.800;2023-07-13T10:49:24;1.27;;;1.17;;
29548;SDS011;16487;53.094;8.800;2023-07-13T10:51:54;1.73;;;1.63;;
29548;SDS011;16487;53.094;8.800;2023-07-13T10:54:22;1.37;;;1.00;;
29548;SDS011;16487;53.094;8.800;2023-07-13T10:57:08;1.63;;;1.23;;
29548;SDS011;16487;53.094;8.800;2023-07-13T10:59:46;0.63;;;0.60;;
29548;SDS011;16487;53.094;8.800;2023-07-13T11:02:17;1.37;;;0.97;;
29548;SDS011;16487;53.094;8.800;2023-07-13T11:04:52;1.87;;;1.77;;
29548;SDS011;16487;53.094;8.800;2023-07-13T11:07:21;1.40;;;1.30;;
29548;SDS011;16487;53.094;8.800;2023-07-13T11:09:51;1.50;;;1.40;;
29548;SDS011;16487;53.094;8.800;2023-07-13T11:12:28;1.83;;;1.70;;
29548;SDS011;16487;53.094;8.800;2023-07-13T11:15:26;2.10;;;2.00;;
29548;SDS011;16487;53.094;8.800;2023-07-13T11:17:57;2.13;;;1.80;;
29548;SDS011;16487;53.094;8.800;2023-07-13T11:20:32;1.87;;;1.67;;
29548;SDS011;16487;53.094;8.800;2023-07-13T11:25:46;5.27;;;2.40;;
29548;SDS011;16487;53.094;8.800;2023-07-13T11:28:23;1.30;;;1.20;;
29548;SDS011;16487;53.094;8.800;2023-07-13T11:31:00;1.60;;;1.23;;
29548;SDS011;16487;53.094;8.800;2023-07-13T11:33:44;2.60;;;1.60;;
29548;SDS011;16487;53.094;8.800;2023-07-13T11:36:31;1.80;;;1.70;;
29548;SDS011;16487;53.094;8.800;2023-07-13T11:39:05;3.20;;;2.00;;
29548;SDS011;16487;53.094;8.800;2023-07-13T11:41:46;1.43;;;1.23;;
29548;SDS011;16487;53.094;8.800;2023-07-13T11:44:20;0.73;;;0.73;;
29548;SDS011;16487;53.094;8.800;2023-07-13T11:46:50;1.03;;;1.03;;
29548;SDS011;16487;53.094;8.800;2023-07-13T11:49:23;0.47;;;0.47;;
29548;SDS011;16487;53.094;8.800;2023-07-13T11:51:52;0.60;;;0.50;;
29548;SDS011;16487;53.094;8.800;2023-07-13T11:54:25;0.73;;;0.73;;
29548;SDS011;16487;53.094;8.800;2023-07-13T11:56:55;0.60;;;0.60;;
29548;SDS011;16487;53.094;8.800;2023-07-13T11:59:25;0.70;;;0.70;;
29548;SDS011;16487;53.094;8.800;2023-07-13T12:01:54;1.10;;;0.97;;
29548;SDS011;16487;53.094;8.800;2023-07-13T12:04:22;1.07;;;0.90;;
29548;SDS011;16487;53.094;8.800;2023-07-13T12:06:56;0.60;;;0.60;;
29548;SDS011;16487;53.094;8.800;2023-07-13T12:09:26;0.80;;;0.80;;
29548;SDS011;16487;53.094;8.800;2023-07-13T12:11:56;0.73;;;0.73;;
29548;SDS011;16487;53.094;8.800;2023-07-13T12:14:27;1.00;;;0.70;;
29548;SDS011;16487;53.094;8.800;2023-07-13T12:16:55;0.83;;;0.83;;
29548;SDS011;16487;53.094;8.800;2023-07-13T12:19:23;2.27;;;2.07;;
29548;SDS011;16487;53.094;8.800;2023-07-13T12:21:53;2.13;;;1.03;;
29548;SDS011;16487;53.094;8.800;2023-07-13T12:24:23;2.00;;;1.57;;
29548;SDS011;16487;53.094;8.800;2023-07-13T12:26:51;1.40;;;1.30;;
29548;SDS011;16487;53.094;8.800;2023-07-13T12:29:19;1.57;;;1.47;;
29548;SDS011;16487;53.094;8.800;2023-07-13T12:31:48;1.47;;;1.30;;
29548;SDS011;16487;53.094;8.800;2023-07-13T12:34:17;1.60;;;1.50;;
29548;SDS011;16487;53.094;8.800;2023-07-13T12:36:46;0.97;;;0.80;;
29548;SDS011;16487;53.094;8.800;2023-07-13T12:39:16;0.77;;;0.77;;
29548;SDS011;16487;53.094;8.800;2023-07-13T12:41:46;1.07;;;0.90;;
29548;SDS011;16487;53.094;8.800;2023-07-13T12:44:15;0.80;;;0.80;;
29548;SDS011;16487;53.094;8.800;2023-07-13T12:46:53;1.17;;;1.07;;
29548;SDS011;16487;53.094;8.800;2023-07-13T12:49:27;0.70;;;0.70;;
29548;SDS011;16487;53.094;8.800;2023-07-13T12:51:56;0.80;;;0.77;;
29548;SDS011;16487;53.094;8.800;2023-07-13T12:54:24;1.43;;;1.07;;
29548;SDS011;16487;53.094;8.800;2023-07-13T12:56:53;1.07;;;0.80;;
29548;SDS011;16487;53.094;8.800;2023-07-13T12:59:22;1.07;;;0.73;;
29548;SDS011;16487;53.094;8.800;2023-07-13T13:01:50;1.37;;;0.63;;
29548;SDS011;16487;53.094;8.800;2023-07-13T13:04:19;0.70;;;0.70;;
29548;SDS011;16487;53.094;8.800;2023-07-13T13:06:47;0.80;;;0.77;;
29548;SDS011;16487;53.094;8.800;2023-07-13T13:09:15;0.90;;;0.57;;
29548;SDS011;16487;53.094;8.800;2023-07-13T13:11:44;1.90;;;0.70;;
29548;SDS011;16487;53.094;8.800;2023-07-13T13:14:11;1.07;;;0.97;;
29548;SDS011;16487;53.094;8.800;2023-07-13T13:16:43;2.10;;;1.10;;
29548;SDS011;16487;53.094;8.800;2023-07-13T13:19:14;0.80;;;0.73;;
29548;SDS011;16487;53.094;8.800;2023-07-13T13:21:44;1.10;;;1.00;;
29548;SDS011;16487;53.094;8.800;2023-07-13T13:24:12;1.10;;;0.97;;
29548;SDS011;16487;53.094;8.800;2023-07-13T13:26:41;0.93;;;0.90;;
29548;SDS011;16487;53.094;8.800;2023-07-13T13:29:11;1.17;;;1.07;;
29548;SDS011;16487;53.094;8.800;2023-07-13T13:31:41;2.40;;;1.17;;
29548;SDS011;16487;53.094;8.800;2023-07-13T13:34:10;0.90;;;0.90;;
29548;SDS011;16487;53.094;8.800;2023-07-13T13:36:38;0.70;;;0.70;;
29548;SDS011;16487;53.094;8.800;2023-07-13T13:39:14;1.10;;;1.10;;
29548;SDS011;16487;53.094;8.800;2023-07-13T13:41:46;0.93;;;0.83;;
29548;SDS011;16487;53.094;8.800;2023-07-13T13:44:14;1.20;;;1.03;;
29548;SDS011;16487;53.094;8.800;2023-07-13T13:46:43;0.73;;;0.73;;
29548;SDS011;16487;53.094;8.800;2023-07-13T13:49:13;1.03;;;1.00;;
29548;SDS011;16487;53.094;8.800;2023-07-13T13:51:42;1.10;;;0.93;;
29548;SDS011;16487;53.094;8.800;2023-07-13T13:54:22;1.20;;;1.10;;
29548;SDS011;16487;53.094;8.800;2023-07-13T13:56:51;1.07;;;0.97;;
29548;SDS011;16487;53.094;8.800;2023-07-13T13:59:19;1.00;;;1.00;;
29548;SDS011;16487;53.094;8.800;2023-07-13T14:01:47;1.00;;;0.90;;
29548;SDS011;16487;53.094;8.800;2023-07-13T14:04:17;1.47;;;1.20;;
29548;SDS011;16487;53.094;8.800;2023-07-13T14:06:46;1.13;;;1.03;;
29548;SDS011;16487;53.094;8.800;2023-07-13T14:09:16;1.67;;;1.10;;
29548;SDS011;16487;53.094;8.800;2023-07-13T14:11:45;2.37;;;1.37;;
29548;SDS011;16487;53.094;8.800;2023-07-13T14:14:18;1.37;;;1.20;;
29548;SDS011;16487;53.094;8.800;2023-07-13T14:16:47;1.43;;;1.33;;
29548;SDS011;16487;53.094;8.800;2023-07-13T14:19:16;1.90;;;1.20;;
29548;SDS011;16487;53.094;8.800;2023-07-13T14:21:43;2.03;;;1.50;;
29548;SDS011;16487;53.094;8.800;2023-07-13T14:24:11;1.10;;;1.00;;
29548;SDS011;16487;53.094;8.800;2023-07-13T14:26:40;1.60;;;1.50;;
29548;SDS011;16487;53.094;8.800;2023-07-13T14:29:11;1.40;;;1.30;;
29548;SDS011;16487;53.094;8.800;2023-07-13T14:31:39;1.40;;;1.30;;
29548;SDS011;16487;53.094;8.800;2023-07-13T14:34:07;1.57;;;1.47;;
29548;SDS011;16487;53.094;8.800;2023-07-13T14:36:36;1.40;;;1.30;;
29548;SDS011;16487;53.094;8.800;2023-07-13T14:39:11;1.40;;;1.30;;
29548;SDS011;16487;53.094;8.800;2023-07-13T14:41:41;2.40;;;1.20;;
29548;SDS011;16487;53.094;8.800;2023-07-13T14:44:10;1.03;;;0.93;;
29548;SDS011;16487;53.094;8.800;2023-07-13T14:46:38;1.20;;;1.10;;
29548;SDS011;16487;53.094;8.800;2023-07-13T14:49:13;2.07;;;1.30;;
29548;SDS011;16487;53.094;8.800;2023-07-13T14:51:47;1.57;;;1.47;;
29548;SDS011;16487;53.094;8.800;2023-07-13T14:54:14;1.63;;;1.53;;
29548;SDS011;16487;53.094;8.800;2023-07-13T14:56:43;1.23;;;1.23;;
29548;SDS011;16487;53.094;8.800;2023-07-13T14:59:10;1.97;;;1.87;;
29548;SDS011;16487;53.094;8.800;2023-07-13T15:01:37;1.97;;;1.87;;
29548;SDS011;16487;53.094;8.800;2023-07-13T15:04:06;1.80;;;1.70;;
29548;SDS011;16487;53.094;8.800;2023-07-13T15:09:23;1.17;;;1.07;;
29548;SDS011;16487;53.094;8.800;2023-07-13T15:11:52;1.10;;;1.00;;